createdAt,value
2019-01-18T00:00:15.685Z,1007.38
2019-01-18T00:01:15.698Z,1007.31
2019-01-18T00:02:15.663Z,1007.25
2019-01-18T00:03:15.656Z,1007.26
2019-01-18T00:04:15.639Z,1007.30
2019-01-18T00:05:15.631Z,1007.27
2019-01-18T00:06:15.642Z,1007.28
2019-01-18T00:07:15.608Z,1007.33
2019-01-18T00:08:15.594Z,1007.31
2019-01-18T00:09:15.584Z,1007.31
2019-01-18T00:10:15.573Z,1007.40
2019-01-18T00:11:15.587Z,1007.42
2019-01-18T00:12:15.551Z,1007.46
2019-01-18T00:13:15.542Z,1007.43
2019-01-18T00:14:15.527Z,1007.49
2019-01-18T00:15:15.516Z,1007.53
2019-01-18T00:16:15.533Z,1007.52
2019-01-18T00:17:15.495Z,1007.52
2019-01-18T00:18:15.484Z,1007.48
2019-01-18T00:19:15.471Z,1007.52
2019-01-18T00:20:15.462Z,1007.44
2019-01-18T00:21:15.451Z,1007.49
2019-01-18T00:22:15.463Z,1007.52
2019-01-18T00:23:15.430Z,1007.54
2019-01-18T00:24:15.419Z,1007.55
2019-01-18T00:25:15.408Z,1007.57
2019-01-18T00:26:15.397Z,1007.60
2019-01-18T00:27:15.407Z,1007.67
2019-01-18T00:28:15.371Z,1007.65
2019-01-18T00:29:15.359Z,1007.63
2019-01-18T00:30:15.351Z,1007.64
2019-01-18T00:31:15.340Z,1007.67
2019-01-18T00:32:15.351Z,1007.69
2019-01-18T00:33:15.316Z,1007.67
2019-01-18T00:34:15.306Z,1007.67
2019-01-18T00:35:15.293Z,1007.67
2019-01-18T00:36:15.283Z,1007.73
2019-01-18T00:37:15.295Z,1007.72
2019-01-18T00:38:15.263Z,1007.74
2019-01-18T00:39:15.248Z,1007.79
2019-01-18T00:40:15.237Z,1007.80
2019-01-18T00:41:15.226Z,1007.83
2019-01-18T00:42:15.239Z,1007.84
2019-01-18T00:43:15.206Z,1007.86
2019-01-18T00:44:15.195Z,1007.87
2019-01-18T00:45:15.182Z,1007.85
2019-01-18T00:46:15.170Z,1007.90
2019-01-18T00:47:15.184Z,1007.86
2019-01-18T00:48:15.149Z,1007.94
2019-01-18T00:49:15.139Z,1007.88
2019-01-18T00:50:15.126Z,1007.85
2019-01-18T00:51:15.119Z,1007.89
2019-01-18T00:52:15.135Z,1007.92
2019-01-18T00:53:15.092Z,1007.94
2019-01-18T00:54:15.082Z,1008.00
2019-01-18T00:55:15.070Z,1007.98
2019-01-18T00:56:15.059Z,1008.05
2019-01-18T00:57:15.072Z,1008.03
2019-01-18T00:58:15.036Z,1008.05
2019-01-18T00:59:15.028Z,1008.06
2019-01-18T01:00:15.015Z,1008.02
2019-01-18T01:01:15.003Z,1008.10
2019-01-18T01:02:15.018Z,1008.09
2019-01-18T01:03:14.981Z,1008.10
2019-01-18T01:04:14.970Z,1008.05
2019-01-18T01:05:14.962Z,1008.08
2019-01-18T01:06:14.948Z,1008.11
2019-01-18T01:07:14.962Z,1008.07
2019-01-18T01:08:14.929Z,1008.12
2019-01-18T01:09:14.913Z,1008.15
2019-01-18T01:10:14.906Z,1008.17
2019-01-18T01:11:14.903Z,1008.14
2019-01-18T01:12:14.905Z,1008.15
2019-01-18T01:13:14.872Z,1008.17
2019-01-18T01:14:14.860Z,1008.19
2019-01-18T01:15:14.850Z,1008.17
2019-01-18T01:16:14.836Z,1008.17
2019-01-18T01:17:14.826Z,1008.20
2019-01-18T01:18:14.842Z,1008.26
2019-01-18T01:19:14.805Z,1008.25
2019-01-18T01:20:14.791Z,1008.25
2019-01-18T01:21:14.780Z,1008.31
2019-01-18T01:22:14.771Z,1008.32
2019-01-18T01:23:14.782Z,1008.35
2019-01-18T01:24:14.747Z,1008.39
2019-01-18T01:25:14.735Z,1008.36
2019-01-18T01:26:14.725Z,1008.39
2019-01-18T01:27:14.713Z,1008.39
2019-01-18T01:28:14.728Z,1008.37
2019-01-18T01:29:14.691Z,1008.37
2019-01-18T01:30:14.682Z,1008.36
2019-01-18T01:31:14.667Z,1008.39
2019-01-18T01:32:14.657Z,1008.41
2019-01-18T01:33:14.671Z,1008.43
2019-01-18T01:34:14.637Z,1008.47
2019-01-18T01:35:14.627Z,1008.51
2019-01-18T01:36:14.612Z,1008.54
2019-01-18T01:37:14.604Z,1008.54
2019-01-18T01:38:15.300Z,1008.55
2019-01-18T01:39:14.579Z,1008.51
2019-01-18T01:40:14.568Z,1008.60
2019-01-18T01:41:14.559Z,1008.61
2019-01-18T01:42:14.546Z,1008.62
2019-01-18T01:43:14.563Z,1008.61
2019-01-18T01:44:14.523Z,1008.67
2019-01-18T01:45:14.513Z,1008.72
2019-01-18T01:46:14.503Z,1008.67
2019-01-18T01:47:14.493Z,1008.68
2019-01-18T01:48:14.505Z,1008.72
2019-01-18T01:49:14.467Z,1008.73
2019-01-18T01:50:14.458Z,1008.79
2019-01-18T01:51:14.445Z,1008.76
2019-01-18T01:52:14.435Z,1008.81
2019-01-18T01:53:14.448Z,1008.81
2019-01-18T01:54:14.413Z,1008.87
2019-01-18T01:55:14.408Z,1008.84
2019-01-18T01:56:14.390Z,1008.88
2019-01-18T01:57:14.379Z,1008.83
2019-01-18T01:58:14.393Z,1008.93
2019-01-18T01:59:14.359Z,1008.88
2019-01-18T02:00:14.342Z,1008.88
2019-01-18T02:01:14.331Z,1008.89
2019-01-18T02:02:14.320Z,1008.92
2019-01-18T02:03:14.336Z,1008.92
2019-01-18T02:04:14.299Z,1008.98
2019-01-18T02:05:14.286Z,1008.94
2019-01-18T02:06:14.275Z,1008.94
2019-01-18T02:07:14.267Z,1008.94
2019-01-18T02:08:14.279Z,1008.98
2019-01-18T02:09:14.243Z,1009.01
2019-01-18T02:10:14.232Z,1009.01
2019-01-18T02:11:14.222Z,1009.05
2019-01-18T02:12:14.219Z,1009.05
2019-01-18T02:13:14.199Z,1009.02
2019-01-18T02:14:14.210Z,1009.09
2019-01-18T02:15:14.184Z,1009.07
2019-01-18T02:16:14.164Z,1009.08
2019-01-18T02:17:14.153Z,1009.09
2019-01-18T02:18:14.143Z,1009.10
2019-01-18T02:19:14.154Z,1009.07
2019-01-18T02:20:14.121Z,1009.14
2019-01-18T02:21:14.107Z,1009.14
2019-01-18T02:22:14.096Z,1009.18
2019-01-18T02:23:14.086Z,1009.15
2019-01-18T02:24:14.099Z,1009.23
2019-01-18T02:25:14.064Z,1009.18
2019-01-18T02:26:14.052Z,1009.18
2019-01-18T02:27:14.049Z,1009.21
2019-01-18T02:28:14.029Z,1009.24
2019-01-18T02:29:14.043Z,1009.24
2019-01-18T02:30:14.010Z,1009.29
2019-01-18T02:31:13.999Z,1009.26
2019-01-18T02:32:13.986Z,1009.30
2019-01-18T02:33:13.974Z,1009.32
2019-01-18T02:34:14.014Z,1009.29
2019-01-18T02:35:13.952Z,1009.31
2019-01-18T02:36:13.941Z,1009.39
2019-01-18T02:37:13.930Z,1009.38
2019-01-18T02:38:13.919Z,1009.40
2019-01-18T02:39:13.943Z,1009.45
2019-01-18T02:40:13.897Z,1009.45
2019-01-18T02:41:13.884Z,1009.49
2019-01-18T02:42:13.873Z,1009.49
2019-01-18T02:43:13.866Z,1009.52
2019-01-18T02:44:13.878Z,1009.62
2019-01-18T02:45:13.846Z,1009.64
2019-01-18T02:46:13.829Z,1009.64
2019-01-18T02:47:13.820Z,1009.64
2019-01-18T02:48:13.806Z,1009.67
2019-01-18T02:49:13.823Z,1009.68
2019-01-18T02:50:13.784Z,1009.73
2019-01-18T02:51:13.772Z,1009.74
2019-01-18T02:52:13.762Z,1009.74
2019-01-18T02:53:13.750Z,1009.77
2019-01-18T02:54:13.764Z,1009.75
2019-01-18T02:55:13.727Z,1009.75
2019-01-18T02:56:13.718Z,1009.77
2019-01-18T02:57:13.706Z,1009.78
2019-01-18T02:58:13.696Z,1009.77
2019-01-18T02:59:13.714Z,1009.82
2019-01-18T03:00:13.675Z,1009.82
2019-01-18T03:01:13.663Z,1009.87
2019-01-18T03:02:13.650Z,1009.82
2019-01-18T03:03:13.638Z,1009.88
2019-01-18T03:04:13.652Z,1009.87
2019-01-18T03:05:13.617Z,1009.88
2019-01-18T03:06:13.605Z,1009.87
2019-01-18T03:07:13.599Z,1009.91
2019-01-18T03:08:13.584Z,1009.90
2019-01-18T03:09:13.573Z,1009.95
2019-01-18T03:10:13.584Z,1009.92
2019-01-18T03:11:13.549Z,1009.95
2019-01-18T03:12:13.540Z,1010.03
2019-01-18T03:13:13.539Z,1010.01
2019-01-18T03:14:13.519Z,1010.02
2019-01-18T03:15:13.530Z,1010.07
2019-01-18T03:16:13.497Z,1010.08
2019-01-18T03:17:13.486Z,1010.04
2019-01-18T03:18:13.473Z,1010.06
2019-01-18T03:19:13.459Z,1010.01
2019-01-18T03:20:13.482Z,1010.05
2019-01-18T03:21:13.439Z,1010.08
2019-01-18T03:22:13.429Z,1010.12
2019-01-18T03:23:13.416Z,1010.09
2019-01-18T03:24:13.404Z,1010.14
2019-01-18T03:25:13.423Z,1010.16
2019-01-18T03:26:13.385Z,1010.12
2019-01-18T03:27:13.373Z,1010.17
2019-01-18T03:28:13.364Z,1010.14
2019-01-18T03:29:13.351Z,1010.15
2019-01-18T03:30:18.939Z,1010.20
2019-01-18T03:31:14.329Z,1010.16
2019-01-18T03:32:13.321Z,1010.27
2019-01-18T03:33:13.308Z,1010.28
2019-01-18T03:34:13.298Z,1010.26
2019-01-18T03:35:13.310Z,1010.32
2019-01-18T03:36:13.273Z,1010.34
2019-01-18T03:37:13.263Z,1010.35
2019-01-18T03:38:13.250Z,1010.41
2019-01-18T03:39:13.239Z,1010.39
2019-01-18T03:40:13.253Z,1010.40
2019-01-18T03:41:13.220Z,1010.47
2019-01-18T03:42:13.212Z,1010.48
2019-01-18T03:43:13.196Z,1010.49
2019-01-18T03:44:13.185Z,1010.50
2019-01-18T03:45:13.199Z,1010.54
2019-01-18T03:46:13.167Z,1010.50
2019-01-18T03:47:13.151Z,1010.52
2019-01-18T03:48:13.143Z,1010.54
2019-01-18T03:49:13.130Z,1010.53
2019-01-18T03:50:13.143Z,1010.61
2019-01-18T03:51:13.107Z,1010.59
2019-01-18T03:52:13.097Z,1010.65
2019-01-18T03:53:13.086Z,1010.62
2019-01-18T03:54:13.073Z,1010.63
2019-01-18T03:55:13.085Z,1010.69
2019-01-18T03:56:13.053Z,1010.66
2019-01-18T03:57:13.039Z,1010.69
2019-01-18T03:58:13.028Z,1010.67
2019-01-18T03:59:13.026Z,1010.70
2019-01-18T04:00:13.032Z,1010.71
2019-01-18T04:01:12.997Z,1010.75
2019-01-18T04:02:12.988Z,1010.73
2019-01-18T04:03:12.974Z,1010.76
2019-01-18T04:04:12.965Z,1010.77
2019-01-18T04:05:12.957Z,1010.80
2019-01-18T04:06:12.964Z,1010.82
2019-01-18T04:07:12.928Z,1010.80
2019-01-18T04:08:12.917Z,1010.80
2019-01-18T04:09:12.906Z,1010.83
2019-01-18T04:10:12.903Z,1010.89
2019-01-18T04:11:12.912Z,1010.82
2019-01-18T04:12:12.879Z,1010.84
2019-01-18T04:13:12.860Z,1010.96
2019-01-18T04:14:12.860Z,1010.92
2019-01-18T04:15:12.838Z,1010.91
2019-01-18T04:16:12.853Z,1010.95
2019-01-18T04:17:12.819Z,1010.95
2019-01-18T04:18:12.809Z,1011.00
2019-01-18T04:19:12.797Z,1010.95
2019-01-18T04:20:12.785Z,1011.00
2019-01-18T04:21:12.796Z,1011.03
2019-01-18T04:22:12.763Z,1010.99
2019-01-18T04:23:12.750Z,1011.04
2019-01-18T04:24:12.740Z,1011.03
2019-01-18T04:25:12.728Z,1011.00
2019-01-18T04:26:12.742Z,1011.02
2019-01-18T04:27:12.706Z,1011.06
2019-01-18T04:28:12.696Z,1011.06
2019-01-18T04:29:12.683Z,1011.03
2019-01-18T04:30:12.672Z,1011.06
2019-01-18T04:31:12.689Z,1011.04
2019-01-18T04:32:12.650Z,1011.12
2019-01-18T04:33:12.639Z,1011.08
2019-01-18T04:34:12.631Z,1011.09
2019-01-18T04:35:12.637Z,1011.10
2019-01-18T04:36:12.629Z,1011.11
2019-01-18T04:37:12.594Z,1011.07
2019-01-18T04:38:12.585Z,1011.13
2019-01-18T04:39:12.571Z,1011.12
2019-01-18T04:40:12.560Z,1011.20
2019-01-18T04:41:12.574Z,1011.22
2019-01-18T04:42:12.537Z,1011.16
2019-01-18T04:43:12.528Z,1011.27
2019-01-18T04:44:12.515Z,1011.25
2019-01-18T04:45:12.504Z,1011.26
2019-01-18T04:46:12.519Z,1011.26
2019-01-18T04:47:12.482Z,1011.27
2019-01-18T04:48:12.471Z,1011.26
2019-01-18T04:49:12.464Z,1011.26
2019-01-18T04:50:12.500Z,1011.20
2019-01-18T04:51:12.461Z,1011.26
2019-01-18T04:52:12.426Z,1011.25
2019-01-18T04:53:12.415Z,1011.26
2019-01-18T04:54:12.404Z,1011.31
2019-01-18T04:55:12.406Z,1011.25
2019-01-18T04:56:12.383Z,1011.29
2019-01-18T04:57:12.393Z,1011.26
2019-01-18T04:58:12.359Z,1011.30
2019-01-18T04:59:12.351Z,1011.34
2019-01-18T05:00:12.336Z,1011.34
2019-01-18T05:01:12.327Z,1011.35
2019-01-18T05:02:12.339Z,1011.39
2019-01-18T05:03:12.303Z,1011.42
2019-01-18T05:04:12.296Z,1011.39
2019-01-18T05:05:12.280Z,1011.41
2019-01-18T05:06:12.271Z,1011.40
2019-01-18T05:07:12.284Z,1011.42
2019-01-18T05:08:12.248Z,1011.47
2019-01-18T05:09:12.236Z,1011.45
2019-01-18T05:10:12.227Z,1011.48
2019-01-18T05:11:12.223Z,1011.45
2019-01-18T05:12:12.234Z,1011.46
2019-01-18T05:13:12.193Z,1011.51
2019-01-18T05:14:12.180Z,1011.53
2019-01-18T05:15:12.177Z,1011.52
2019-01-18T05:16:12.165Z,1011.52
2019-01-18T05:17:12.150Z,1011.55
2019-01-18T05:18:12.164Z,1011.55
2019-01-18T05:19:12.128Z,1011.61
2019-01-18T05:20:12.114Z,1011.57
2019-01-18T05:21:12.102Z,1011.59
2019-01-18T05:22:12.103Z,1011.61
2019-01-18T05:23:12.105Z,1011.64
2019-01-18T05:24:12.072Z,1011.65
2019-01-18T05:25:12.060Z,1011.65
2019-01-18T05:26:12.048Z,1011.69
2019-01-18T05:27:12.040Z,1011.69
2019-01-18T05:28:12.068Z,1011.71
2019-01-18T05:29:12.014Z,1011.73
2019-01-18T05:30:12.001Z,1011.77
2019-01-18T05:31:11.994Z,1011.76
2019-01-18T05:32:11.981Z,1011.76
2019-01-18T05:33:11.993Z,1011.78
2019-01-18T05:34:11.960Z,1011.86
2019-01-18T05:35:11.945Z,1011.90
2019-01-18T05:36:11.935Z,1011.94
2019-01-18T05:37:11.928Z,1011.94
2019-01-18T05:38:11.938Z,1011.92
2019-01-18T05:39:11.902Z,1011.98
2019-01-18T05:40:11.894Z,1012.02
2019-01-18T05:41:11.879Z,1012.03
2019-01-18T05:42:11.882Z,1011.99
2019-01-18T05:43:11.882Z,1012.01
2019-01-18T05:44:11.846Z,1012.06
2019-01-18T05:45:11.835Z,1012.01
2019-01-18T05:46:11.825Z,1012.03
2019-01-18T05:47:11.813Z,1011.99
2019-01-18T05:48:11.827Z,1012.02
2019-01-18T05:49:11.791Z,1011.99
2019-01-18T05:50:11.783Z,1011.98
2019-01-18T05:51:11.770Z,1012.00
2019-01-18T05:52:11.757Z,1011.96
2019-01-18T05:53:11.770Z,1012.01
2019-01-18T05:54:11.735Z,1012.01
2019-01-18T05:55:11.723Z,1011.99
2019-01-18T05:56:11.713Z,1011.98
2019-01-18T05:57:11.702Z,1012.00
2019-01-18T05:58:11.715Z,1012.03
2019-01-18T05:59:11.681Z,1012.03
2019-01-18T06:00:11.667Z,1012.06
2019-01-18T06:01:11.655Z,1012.03
2019-01-18T06:02:11.645Z,1012.03
2019-01-18T06:03:11.657Z,1012.03
2019-01-18T06:04:11.623Z,1012.02
2019-01-18T06:05:11.611Z,1011.98
2019-01-18T06:06:11.599Z,1012.02
2019-01-18T06:07:11.590Z,1012.02
2019-01-18T06:08:11.582Z,1012.03
2019-01-18T06:09:11.591Z,1012.04
2019-01-18T06:10:11.555Z,1012.08
2019-01-18T06:11:11.544Z,1012.05
2019-01-18T06:12:11.537Z,1012.09
2019-01-18T06:13:11.525Z,1012.09
2019-01-18T06:14:11.540Z,1012.05
2019-01-18T06:15:11.499Z,1012.11
2019-01-18T06:16:11.490Z,1012.09
2019-01-18T06:17:11.482Z,1012.10
2019-01-18T06:18:11.469Z,1012.11
2019-01-18T06:19:11.478Z,1012.09
2019-01-18T06:20:11.444Z,1012.12
2019-01-18T06:21:11.434Z,1012.08
2019-01-18T06:22:11.421Z,1012.07
2019-01-18T06:23:11.413Z,1012.12
2019-01-18T06:24:11.426Z,1012.13
2019-01-18T06:25:11.392Z,1012.10
2019-01-18T06:26:11.378Z,1012.12
2019-01-18T06:27:11.375Z,1012.10
2019-01-18T06:28:11.354Z,1012.06
2019-01-18T06:29:11.368Z,1012.06
2019-01-18T06:30:11.333Z,1012.07
2019-01-18T06:31:11.322Z,1012.11
2019-01-18T06:32:11.310Z,1012.04
2019-01-18T06:33:11.298Z,1012.07
2019-01-18T06:34:11.314Z,1012.04
2019-01-18T06:35:11.290Z,1012.11
2019-01-18T06:36:11.267Z,1012.14
2019-01-18T06:37:11.255Z,1012.10
2019-01-18T06:38:11.243Z,1012.11
2019-01-18T06:39:11.256Z,1012.14
2019-01-18T06:40:11.222Z,1012.11
2019-01-18T06:41:11.211Z,1012.11
2019-01-18T06:42:11.199Z,1012.13
2019-01-18T06:43:11.188Z,1012.15
2019-01-18T06:44:11.201Z,1012.18
2019-01-18T06:45:11.166Z,1012.14
2019-01-18T06:46:11.154Z,1012.15
2019-01-18T06:47:11.143Z,1012.15
2019-01-18T06:48:11.131Z,1012.18
2019-01-18T06:49:11.144Z,1012.23
2019-01-18T06:50:11.109Z,1012.25
2019-01-18T06:51:11.098Z,1012.21
2019-01-18T06:52:11.088Z,1012.24
2019-01-18T06:53:11.076Z,1012.28
2019-01-18T06:54:11.066Z,1012.35
2019-01-18T06:55:11.079Z,1012.31
2019-01-18T06:56:11.045Z,1012.37
2019-01-18T06:57:11.031Z,1012.36
2019-01-18T06:58:11.021Z,1012.39
2019-01-18T06:59:11.010Z,1012.38
2019-01-18T07:00:11.023Z,1012.48
2019-01-18T07:01:10.989Z,1012.46
2019-01-18T07:02:10.976Z,1012.49
2019-01-18T07:03:10.965Z,1012.50
2019-01-18T07:04:10.954Z,1012.52
2019-01-18T07:05:10.966Z,1012.50
2019-01-18T07:06:10.932Z,1012.53
2019-01-18T07:07:10.922Z,1012.51
2019-01-18T07:08:10.909Z,1012.54
2019-01-18T07:09:10.902Z,1012.55
2019-01-18T07:10:10.917Z,1012.54
2019-01-18T07:11:10.876Z,1012.54
2019-01-18T07:12:10.867Z,1012.57
2019-01-18T07:13:10.854Z,1012.59
2019-01-18T07:14:10.860Z,1012.61
2019-01-18T07:15:10.857Z,1012.67
2019-01-18T07:16:10.820Z,1012.69
2019-01-18T07:17:10.809Z,1012.66
2019-01-18T07:18:10.798Z,1012.70
2019-01-18T07:19:10.787Z,1012.70
2019-01-18T07:20:10.800Z,1012.70
2019-01-18T07:21:10.764Z,1012.73
2019-01-18T07:22:10.762Z,1012.74
2019-01-18T07:23:10.742Z,1012.73
2019-01-18T07:24:10.733Z,1012.77
2019-01-18T07:25:10.745Z,1012.78
2019-01-18T07:26:10.709Z,1012.80
2019-01-18T07:27:10.698Z,1012.82
2019-01-18T07:28:10.688Z,1012.81
2019-01-18T07:29:10.675Z,1012.81
2019-01-18T07:30:10.689Z,1012.77
2019-01-18T07:31:15.093Z,1012.80
2019-01-18T07:32:10.647Z,1012.80
2019-01-18T07:33:10.631Z,1012.80
2019-01-18T07:34:10.625Z,1012.76
2019-01-18T07:35:10.633Z,1012.78
2019-01-18T07:36:10.598Z,1012.80
2019-01-18T07:37:10.588Z,1012.88
2019-01-18T07:38:10.575Z,1012.84
2019-01-18T07:39:10.564Z,1012.83
2019-01-18T07:40:10.578Z,1012.84
2019-01-18T07:41:10.543Z,1012.86
2019-01-18T07:42:10.531Z,1012.88
2019-01-18T07:43:10.519Z,1012.87
2019-01-18T07:44:10.509Z,1012.91
2019-01-18T07:45:10.524Z,1012.91
2019-01-18T07:46:10.489Z,1012.91
2019-01-18T07:47:10.480Z,1012.90
2019-01-18T07:48:10.464Z,1012.91
2019-01-18T07:49:10.458Z,1012.88
2019-01-18T07:50:10.449Z,1012.87
2019-01-18T07:51:10.455Z,1012.91
2019-01-18T07:52:10.420Z,1012.93
2019-01-18T07:53:10.417Z,1012.93
2019-01-18T07:54:10.397Z,1012.97
2019-01-18T07:55:10.402Z,1013.02
2019-01-18T07:56:10.399Z,1013.00
2019-01-18T07:57:10.364Z,1013.00
2019-01-18T07:58:10.356Z,1013.06
2019-01-18T07:59:10.341Z,1013.08
2019-01-18T08:00:10.332Z,1013.09
2019-01-18T08:01:10.345Z,1013.14
2019-01-18T08:02:10.311Z,1013.11
2019-01-18T08:03:10.303Z,1013.13
2019-01-18T08:04:10.366Z,1013.17
2019-01-18T08:05:10.281Z,1013.14
2019-01-18T08:06:10.292Z,1013.17
2019-01-18T08:07:10.254Z,1013.18
2019-01-18T08:08:10.243Z,1013.17
2019-01-18T08:09:10.235Z,1013.20
2019-01-18T08:10:10.220Z,1013.20
2019-01-18T08:11:10.234Z,1013.20
2019-01-18T08:12:10.198Z,1013.23
2019-01-18T08:13:10.190Z,1013.28
2019-01-18T08:14:10.178Z,1013.27
2019-01-18T08:15:10.165Z,1013.31
2019-01-18T08:16:10.190Z,1013.39
2019-01-18T08:17:10.144Z,1013.39
2019-01-18T08:18:10.150Z,1013.40
2019-01-18T08:19:10.121Z,1013.43
2019-01-18T08:20:10.109Z,1013.43
2019-01-18T08:21:10.120Z,1013.50
2019-01-18T08:22:10.087Z,1013.48
2019-01-18T08:23:10.076Z,1013.49
2019-01-18T08:24:10.147Z,1013.50
2019-01-18T08:25:10.054Z,1013.55
2019-01-18T08:26:10.070Z,1013.57
2019-01-18T08:27:10.030Z,1013.61
2019-01-18T08:28:10.022Z,1013.62
2019-01-18T08:29:10.007Z,1013.60
2019-01-18T08:30:09.999Z,1013.61
2019-01-18T08:31:10.026Z,1013.63
2019-01-18T08:32:09.978Z,1013.72
2019-01-18T08:33:10.009Z,1013.67
2019-01-18T08:34:09.953Z,1013.70
2019-01-18T08:35:09.947Z,1013.75
2019-01-18T08:36:09.953Z,1013.75
2019-01-18T08:37:09.946Z,1013.77
2019-01-18T08:38:09.908Z,1013.72
2019-01-18T08:39:09.896Z,1013.77
2019-01-18T08:40:09.887Z,1013.78
2019-01-18T08:41:09.877Z,1013.80
2019-01-18T08:42:09.891Z,1013.80
2019-01-18T08:43:09.852Z,1013.82
2019-01-18T08:44:09.841Z,1013.84
2019-01-18T08:45:09.836Z,1013.85
2019-01-18T08:46:09.827Z,1013.85
2019-01-18T08:47:09.835Z,1013.89
2019-01-18T08:48:09.797Z,1013.87
2019-01-18T08:49:09.786Z,1013.92
2019-01-18T08:50:09.777Z,1013.93
2019-01-18T08:51:09.775Z,1013.95
2019-01-18T08:52:09.776Z,1013.95
2019-01-18T08:53:09.745Z,1013.93
2019-01-18T08:54:09.731Z,1013.95
2019-01-18T08:55:09.741Z,1013.97
2019-01-18T08:56:09.707Z,1014.01
2019-01-18T08:57:09.725Z,1013.98
2019-01-18T08:58:09.696Z,1013.99
2019-01-18T08:59:09.678Z,1014.00
2019-01-18T09:00:09.663Z,1014.02
2019-01-18T09:01:09.655Z,1014.03
2019-01-18T09:02:09.665Z,1014.04
2019-01-18T09:03:09.630Z,1014.04
2019-01-18T09:04:09.620Z,1014.03
2019-01-18T09:05:09.607Z,1014.03
2019-01-18T09:06:09.597Z,1014.02
2019-01-18T09:07:09.611Z,1014.08
2019-01-18T09:08:09.574Z,1014.09
2019-01-18T09:09:09.562Z,1014.04
2019-01-18T09:10:09.552Z,1014.07
2019-01-18T09:11:09.541Z,1014.04
2019-01-18T09:12:09.555Z,1014.11
2019-01-18T09:13:09.517Z,1014.08
2019-01-18T09:14:09.509Z,1014.13
2019-01-18T09:15:09.498Z,1014.07
2019-01-18T09:16:09.483Z,1014.11
2019-01-18T09:17:09.505Z,1014.12
2019-01-18T09:18:09.462Z,1014.12
2019-01-18T09:19:09.452Z,1014.10
2019-01-18T09:20:09.440Z,1014.10
2019-01-18T09:21:09.431Z,1014.17
2019-01-18T09:22:09.441Z,1014.15
2019-01-18T09:23:09.412Z,1014.19
2019-01-18T09:24:09.397Z,1014.18
2019-01-18T09:25:09.384Z,1014.16
2019-01-18T09:26:09.374Z,1014.13
2019-01-18T09:27:09.378Z,1014.10
2019-01-18T09:28:09.419Z,1014.19
2019-01-18T09:29:10.305Z,1014.15
2019-01-18T09:30:09.331Z,1014.17
2019-01-18T09:31:09.322Z,1014.16
2019-01-18T09:32:09.307Z,1014.11
2019-01-18T09:33:09.319Z,1014.18
2019-01-18T09:34:09.288Z,1014.21
2019-01-18T09:35:09.275Z,1014.20
2019-01-18T09:36:09.264Z,1014.22
2019-01-18T09:37:09.262Z,1014.23
2019-01-18T09:38:09.267Z,1014.28
2019-01-18T09:39:09.238Z,1014.27
2019-01-18T09:40:09.223Z,1014.30
2019-01-18T09:41:09.206Z,1014.31
2019-01-18T09:42:09.194Z,1014.34
2019-01-18T09:43:09.222Z,1014.35
2019-01-18T09:44:09.174Z,1014.40
2019-01-18T09:45:09.165Z,1014.30
2019-01-18T09:46:09.153Z,1014.32
2019-01-18T09:47:09.138Z,1014.33
2019-01-18T09:48:09.153Z,1014.34
2019-01-18T09:49:09.115Z,1014.38
2019-01-18T09:50:09.107Z,1014.44
2019-01-18T09:51:09.099Z,1014.44
2019-01-18T09:52:09.086Z,1014.44
2019-01-18T09:53:09.098Z,1014.44
2019-01-18T09:54:09.063Z,1014.47
2019-01-18T09:55:09.052Z,1014.45
2019-01-18T09:56:09.037Z,1014.47
2019-01-18T09:57:09.028Z,1014.48
2019-01-18T09:58:09.043Z,1014.45
2019-01-18T09:59:09.005Z,1014.49
2019-01-18T10:00:09.001Z,1014.56
2019-01-18T10:01:08.982Z,1014.50
2019-01-18T10:02:08.971Z,1014.55
2019-01-18T10:03:08.982Z,1014.59
2019-01-18T10:04:08.951Z,1014.59
2019-01-18T10:05:08.942Z,1014.56
2019-01-18T10:06:08.925Z,1014.58
2019-01-18T10:07:08.921Z,1014.58
2019-01-18T10:08:09.847Z,1014.57
2019-01-18T10:09:08.894Z,1014.59
2019-01-18T10:10:08.881Z,1014.59
2019-01-18T10:11:08.876Z,1014.59
2019-01-18T10:12:08.865Z,1014.62
2019-01-18T10:13:08.872Z,1014.59
2019-01-18T10:14:08.843Z,1014.64
2019-01-18T10:15:08.827Z,1014.65
2019-01-18T10:16:08.816Z,1014.59
2019-01-18T10:17:08.805Z,1014.61
2019-01-18T10:18:08.796Z,1014.57
2019-01-18T10:19:08.805Z,1014.61
2019-01-18T10:20:08.796Z,1014.65
2019-01-18T10:21:08.758Z,1014.68
2019-01-18T10:22:08.747Z,1014.64
2019-01-18T10:23:08.737Z,1014.62
2019-01-18T10:24:08.749Z,1014.60
2019-01-18T10:25:08.713Z,1014.67
2019-01-18T10:26:08.704Z,1014.66
2019-01-18T10:27:08.690Z,1014.65
2019-01-18T10:28:08.682Z,1014.61
2019-01-18T10:29:08.691Z,1014.65
2019-01-18T10:30:08.658Z,1014.64
2019-01-18T10:31:08.648Z,1014.61
2019-01-18T10:32:08.635Z,1014.60
2019-01-18T10:33:08.625Z,1014.63
2019-01-18T10:34:08.638Z,1014.61
2019-01-18T10:35:08.602Z,1014.61
2019-01-18T10:36:08.591Z,1014.60
2019-01-18T10:37:08.582Z,1014.65
2019-01-18T10:38:08.576Z,1014.64
2019-01-18T10:39:08.581Z,1014.61
2019-01-18T10:40:08.547Z,1014.66
2019-01-18T10:41:08.537Z,1014.67
2019-01-18T10:42:08.523Z,1014.67
2019-01-18T10:43:08.588Z,1014.59
2019-01-18T10:44:08.524Z,1014.62
2019-01-18T10:45:08.491Z,1014.69
2019-01-18T10:46:08.480Z,1014.71
2019-01-18T10:47:08.468Z,1014.67
2019-01-18T10:48:08.601Z,1014.72
2019-01-18T10:49:08.471Z,1014.68
2019-01-18T10:50:08.434Z,1014.73
2019-01-18T10:51:08.423Z,1014.70
2019-01-18T10:52:08.411Z,1014.67
2019-01-18T10:53:08.401Z,1014.68
2019-01-18T10:54:08.412Z,1014.62
2019-01-18T10:55:08.378Z,1014.66
2019-01-18T10:56:08.367Z,1014.67
2019-01-18T10:57:08.358Z,1014.70
2019-01-18T10:58:08.345Z,1014.68
2019-01-18T10:59:08.358Z,1014.74
2019-01-18T11:00:08.324Z,1014.72
2019-01-18T11:01:08.314Z,1014.71
2019-01-18T11:02:08.299Z,1014.69
2019-01-18T11:03:09.109Z,1014.66
2019-01-18T11:04:08.301Z,1014.61
2019-01-18T11:05:08.265Z,1014.63
2019-01-18T11:06:08.254Z,1014.64
2019-01-18T11:07:08.246Z,1014.61
2019-01-18T11:08:08.232Z,1014.60
2019-01-18T11:09:08.244Z,1014.60
2019-01-18T11:10:08.212Z,1014.58
2019-01-18T11:11:08.198Z,1014.62
2019-01-18T11:12:08.186Z,1014.58
2019-01-18T11:13:08.177Z,1014.57
2019-01-18T11:14:08.167Z,1014.58
2019-01-18T11:15:08.178Z,1014.55
2019-01-18T11:16:08.142Z,1014.49
2019-01-18T11:17:08.132Z,1014.57
2019-01-18T11:18:08.120Z,1014.52
2019-01-18T11:19:08.110Z,1014.53
2019-01-18T11:20:08.122Z,1014.51
2019-01-18T11:21:08.085Z,1014.52
2019-01-18T11:22:08.075Z,1014.49
2019-01-18T11:23:08.065Z,1014.43
2019-01-18T11:24:08.076Z,1014.42
2019-01-18T11:25:08.166Z,1014.45
2019-01-18T11:26:08.030Z,1014.42
2019-01-18T11:27:08.018Z,1014.43
2019-01-18T11:28:08.008Z,1014.40
2019-01-18T11:29:07.996Z,1014.41
2019-01-18T11:30:08.011Z,1014.38
2019-01-18T11:31:07.979Z,1014.36
2019-01-18T11:32:13.591Z,1014.32
2019-01-18T11:33:08.954Z,1014.36
2019-01-18T11:34:07.940Z,1014.34
2019-01-18T11:35:07.954Z,1014.34
2019-01-18T11:36:07.917Z,1014.35
2019-01-18T11:37:07.906Z,1014.34
2019-01-18T11:38:07.911Z,1014.33
2019-01-18T11:39:07.883Z,1014.37
2019-01-18T11:40:07.899Z,1014.39
2019-01-18T11:41:07.861Z,1014.32
2019-01-18T11:42:07.849Z,1014.31
2019-01-18T11:43:07.839Z,1014.31
2019-01-18T11:44:07.826Z,1014.26
2019-01-18T11:45:07.842Z,1014.28
2019-01-18T11:46:07.805Z,1014.27
2019-01-18T11:47:07.795Z,1014.28
2019-01-18T11:48:07.783Z,1014.24
2019-01-18T11:49:07.774Z,1014.24
2019-01-18T11:50:07.785Z,1014.29
2019-01-18T11:51:07.749Z,1014.33
2019-01-18T11:52:07.746Z,1014.35
2019-01-18T11:53:07.726Z,1014.29
2019-01-18T11:54:07.715Z,1014.30
2019-01-18T11:55:07.727Z,1014.36
2019-01-18T11:56:07.691Z,1014.30
2019-01-18T11:57:07.682Z,1014.28
2019-01-18T11:58:07.670Z,1014.27
2019-01-18T11:59:07.658Z,1014.25
2019-01-18T12:00:07.672Z,1014.30
2019-01-18T12:01:07.635Z,1014.32
2019-01-18T12:02:07.625Z,1014.31
2019-01-18T12:03:07.614Z,1014.29
2019-01-18T12:04:07.602Z,1014.33
2019-01-18T12:05:07.593Z,1014.37